Time;durP1;ratioP1;P1;durP2;ratioP2;P2;SDS_P1;SDS_P2;PMS_P1;PMS_P2;Temp;Humidity;BMP_temperature;BMP_pressure;BME280_temperature;BME280_humidity;BME280_pressure;Samples;Min_cycle;Max_cycle;Signal;HPM_P1;HPM_P2
2023/08/02 00:02:14;;;;;;;4.57;2.05;;;15.80;99.90;;;;;;4954873;28;89383;-78
2023/08/02 00:04:41;;;;;;;6.40;2.60;;;15.80;99.90;;;;;;4954479;28;89209;-78
2023/08/02 00:07:07;;;;;;;7.57;1.95;;;15.80;99.90;;;;;;4959320;28;87457;-78
2023/08/02 00:09:33;;;;;;;9.55;2.88;;;15.70;99.90;;;;;;4975262;28;87008;-78
2023/08/02 00:11:59;;;;;;;8.35;2.88;;;15.70;99.90;;;;;;4955346;28;88266;-78
2023/08/02 00:14:25;;;;;;;7.82;2.40;;;15.70;99.90;;;;;;4954132;28;90379;-78
2023/08/02 00:16:51;;;;;;;9.77;2.22;;;15.70;99.90;;;;;;4956002;28;89554;-78
2023/08/02 00:19:16;;;;;;;6.45;2.65;;;15.80;99.90;;;;;;4959593;28;87550;-78
2023/08/02 00:21:43;;;;;;;6.15;2.78;;;15.80;99.90;;;;;;4973869;28;88285;-78
2023/08/02 00:24:08;;;;;;;7.50;2.25;;;15.70;99.90;;;;;;4955548;28;88680;-78
2023/08/02 00:26:34;;;;;;;4.47;1.92;;;15.80;99.90;;;;;;4969831;28;88993;-78
2023/08/02 00:29:00;;;;;;;5.15;2.00;;;15.80;99.90;;;;;;4964468;28;87767;-78
2023/08/02 00:31:25;;;;;;;6.03;2.50;;;15.80;99.90;;;;;;4961388;28;87000;-77
2023/08/02 00:33:51;;;;;;;7.90;2.38;;;15.80;99.90;;;;;;4973777;28;88920;-78
2023/08/02 00:36:17;;;;;;;9.32;2.60;;;15.80;99.90;;;;;;4959070;28;88240;-78
2023/08/02 00:38:42;;;;;;;6.63;2.38;;;15.80;99.90;;;;;;4974524;28;88929;-78
2023/08/02 00:41:09;;;;;;;8.77;2.55;;;15.90;99.90;;;;;;4978091;28;88144;-78
2023/08/02 00:43:40;;;;;;;11.90;2.75;;;15.90;99.90;;;;;;4952297;28;89758;-78
2023/08/02 00:46:07;;;;;;;13.52;2.83;;;15.90;99.90;;;;;;4961335;28;88271;-78
2023/08/02 00:48:34;;;;;;;9.55;3.05;;;16.00;99.90;;;;;;4960590;28;87566;-78
2023/08/02 00:51:00;;;;;;;5.00;2.40;;;16.00;99.90;;;;;;4958706;28;88294;-78
2023/08/02 00:53:26;;;;;;;7.10;2.85;;;16.00;99.90;;;;;;4957868;28;95178;-78
2023/08/02 00:55:52;;;;;;;5.00;2.80;;;16.10;99.90;;;;;;4939383;28;91098;-78
2023/08/02 00:58:18;;;;;;;12.45;3.13;;;16.10;99.90;;;;;;4962831;28;87620;-77
2023/08/02 01:00:43;;;;;;;7.07;2.63;;;16.10;99.90;;;;;;4959270;28;89302;-78
2023/08/02 01:03:09;;;;;;;10.90;2.90;;;16.10;99.90;;;;;;4959765;28;92970;-78
2023/08/02 01:05:40;;;;;;;9.27;2.75;;;16.20;99.90;;;;;;4961762;28;89320;-78
2023/08/02 01:08:10;;;;;;;10.35;3.58;;;16.20;99.90;;;;;;4958300;28;87692;-78
2023/08/02 01:10:48;;;;;;;9.00;2.83;;;16.20;99.90;;;;;;4964892;28;94445;-78
2023/08/02 01:13:16;;;;;;;10.00;3.08;;;16.20;99.90;;;;;;4972355;28;88697;-78
2023/08/02 01:15:42;;;;;;;7.13;2.47;;;16.20;99.90;;;;;;4957527;28;88428;-78
2023/08/02 01:18:09;;;;;;;7.50;2.40;;;16.30;99.90;;;;;;4958230;28;87624;-78
2023/08/02 01:20:35;;;;;;;8.57;2.83;;;16.30;99.90;;;;;;4973026;28;86767;-78
2023/08/02 01:23:00;;;;;;;7.20;2.92;;;16.30;99.90;;;;;;4976613;28;88464;-78
2023/08/02 01:25:29;;;;;;;7.10;2.78;;;16.30;99.90;;;;;;4971069;28;88046;-78
2023/08/02 01:28:00;;;;;;;6.50;2.60;;;16.30;99.90;;;;;;4938882;28;88072;-78
2023/08/02 01:30:38;;;;;;;7.57;2.72;;;16.30;99.90;;;;;;4958859;28;87494;-78
2023/08/02 01:33:05;;;;;;;8.52;2.65;;;16.40;99.90;;;;;;4957285;28;89368;-78
2023/08/02 01:35:32;;;;;;;11.85;2.88;;;16.40;99.90;;;;;;4957067;28;88212;-78
2023/08/02 01:37:58;;;;;;;7.95;2.65;;;16.40;99.90;;;;;;4967963;28;87889;-78
2023/08/02 01:40:24;;;;;;;10.18;2.72;;;16.40;99.90;;;;;;4970976;28;87966;-78
2023/08/02 01:42:50;;;;;;;8.60;3.10;;;16.50;99.90;;;;;;4958555;28;88322;-78
2023/08/02 01:45:15;;;;;;;20.10;3.92;;;16.50;99.90;;;;;;4959695;28;90535;-78
2023/08/02 01:47:41;;;;;;;11.40;3.20;;;16.60;99.90;;;;;;4976234;28;87507;-78
2023/08/02 01:50:07;;;;;;;10.82;3.13;;;16.50;99.90;;;;;;4965044;28;87646;-78
2023/08/02 01:52:32;;;;;;;9.35;2.38;;;16.60;99.90;;;;;;4964203;28;89081;-78
2023/08/02 01:54:58;;;;;;;10.75;3.20;;;16.60;99.90;;;;;;4976419;28;89407;-78
2023/08/02 01:57:24;;;;;;;6.25;2.63;;;16.60;99.90;;;;;;4978244;28;87889;-78
2023/08/02 01:59:49;;;;;;;7.07;2.60;;;16.60;99.90;;;;;;4976838;28;87728;-78
2023/08/02 02:02:16;;;;;;;10.82;3.30;;;16.60;99.90;;;;;;4963952;28;88742;-78
2023/08/02 02:04:42;;;;;;;7.65;2.63;;;16.60;99.90;;;;;;4947977;28;90000;-78
2023/08/02 02:07:07;;;;;;;6.63;2.47;;;16.60;99.90;;;;;;4973140;28;87481;-78
2023/08/02 02:09:33;;;;;;;8.48;3.13;;;16.70;99.90;;;;;;4957660;28;87103;-78
2023/08/02 02:11:59;;;;;;;11.38;2.92;;;16.60;99.90;;;;;;4975149;28;87657;-78
2023/08/02 02:14:24;;;;;;;8.82;2.75;;;16.70;99.90;;;;;;4976905;28;87788;-78
2023/08/02 02:16:50;;;;;;;8.80;3.10;;;16.60;99.90;;;;;;4958459;28;88629;-78
2023/08/02 02:19:15;;;;;;;7.45;2.58;;;16.70;99.90;;;;;;4957504;28;95707;-78
2023/08/02 02:21:41;;;;;;;8.30;2.40;;;16.70;99.90;;;;;;4975809;28;87820;-78
2023/08/02 02:24:07;;;;;;;7.78;2.75;;;16.70;99.90;;;;;;4957703;28;88358;-78
2023/08/02 02:26:34;;;;;;;6.97;2.88;;;16.60;99.90;;;;;;4956924;28;87703;-78
2023/08/02 02:29:00;;;;;;;8.55;2.70;;;16.60;99.90;;;;;;4967393;28;87453;-78
2023/08/02 02:31:25;;;;;;;11.00;2.85;;;16.60;99.90;;;;;;4951856;28;89256;-78
2023/08/02 02:33:51;;;;;;;3.78;2.03;;;16.60;99.90;;;;;;4957404;28;88754;-78
2023/08/02 02:36:16;;;;;;;5.13;2.03;;;16.60;99.90;;;;;;4957698;28;87679;-78
2023/08/02 02:38:42;;;;;;;3.92;2.28;;;16.60;99.90;;;;;;4956907;28;87524;-78
2023/08/02 02:41:08;;;;;;;4.13;2.22;;;16.60;99.90;;;;;;4967074;28;90385;-78
2023/08/02 02:43:33;;;;;;;5.45;2.38;;;16.60;99.90;;;;;;4968912;28;89345;-78
2023/08/02 02:45:59;;;;;;;5.50;2.63;;;16.60;99.90;;;;;;4941507;28;87947;-78
2023/08/02 02:48:24;;;;;;;5.60;2.50;;;16.60;99.90;;;;;;4958902;28;90119;-78
2023/08/02 02:50:50;;;;;;;7.38;2.35;;;16.60;99.90;;;;;;4975457;28;88598;-78
2023/08/02 02:53:20;;;;;;;7.65;2.95;;;16.60;99.90;;;;;;4963663;28;88839;-78
2023/08/02 02:55:46;;;;;;;5.57;2.78;;;16.50;99.90;;;;;;4939378;28;87467;-78
2023/08/02 02:58:12;;;;;;;8.82;2.42;;;16.50;99.90;;;;;;4960601;28;86947;-78
2023/08/02 03:00:37;;;;;;;4.78;2.60;;;16.50;99.90;;;;;;4976775;28;88786;-78
2023/08/02 03:03:03;;;;;;;6.78;2.20;;;16.50;99.90;;;;;;4958174;28;91729;-78
2023/08/02 03:05:29;;;;;;;6.13;2.60;;;16.50;99.90;;;;;;4960509;28;88814;-78
2023/08/02 03:07:54;;;;;;;3.40;2.38;;;16.50;99.90;;;;;;4966126;28;87716;-78
2023/08/02 03:10:20;;;;;;;5.72;2.40;;;16.50;99.90;;;;;;4970069;28;88120;-78
2023/08/02 03:12:46;;;;;;;7.55;2.63;;;16.50;99.90;;;;;;4956727;28;95289;-79
2023/08/02 03:15:11;;;;;;;8.07;2.75;;;16.50;99.90;;;;;;4977055;28;87493;-78
2023/08/02 03:17:37;;;;;;;5.18;2.28;;;16.50;99.90;;;;;;4976046;28;87589;-78
2023/08/02 03:20:03;;;;;;;5.75;2.70;;;16.50;99.90;;;;;;4963924;28;87745;-78
2023/08/02 03:22:28;;;;;;;5.20;2.30;;;16.50;99.90;;;;;;4962754;28;87939;-78
2023/08/02 03:24:54;;;;;;;9.35;2.95;;;16.40;99.90;;;;;;4955547;28;87588;-78
2023/08/02 03:27:19;;;;;;;4.95;2.55;;;16.40;99.90;;;;;;4956888;28;87918;-78
2023/08/02 03:29:45;;;;;;;8.57;2.95;;;16.40;99.90;;;;;;4955508;28;90206;-78
2023/08/02 03:32:11;;;;;;;8.13;3.28;;;16.40;99.90;;;;;;4968192;28;87989;-78
2023/08/02 03:34:36;;;;;;;10.32;4.03;;;16.40;99.90;;;;;;4967830;28;87790;-78
2023/08/02 03:37:02;;;;;;;9.00;2.97;;;16.40;99.90;;;;;;4957997;28;87619;-78
2023/08/02 03:39:28;;;;;;;6.85;3.20;;;16.30;99.90;;;;;;4976289;28;87697;-78
2023/08/02 03:41:56;;;;;;;6.75;2.92;;;16.40;99.90;;;;;;4957164;28;88486;-78
2023/08/02 03:44:22;;;;;;;5.72;3.10;;;16.30;99.90;;;;;;4969511;28;87398;-78
2023/08/02 03:46:47;;;;;;;7.18;3.50;;;16.40;99.90;;;;;;4975752;28;87219;-78
2023/08/02 03:49:13;;;;;;;10.68;3.88;;;16.40;99.90;;;;;;4970857;28;88318;-78
2023/08/02 03:51:39;;;;;;;8.25;3.38;;;16.40;99.90;;;;;;4937978;28;91513;-78
2023/08/02 03:54:06;;;;;;;9.60;3.40;;;16.40;99.90;;;;;;4974586;28;88638;-78
2023/08/02 03:56:31;;;;;;;9.48;3.63;;;16.40;99.90;;;;;;4975372;28;87803;-78
2023/08/02 03:58:57;;;;;;;5.82;4.00;;;16.40;99.90;;;;;;4964815;28;88667;-78
2023/08/02 04:01:23;;;;;;;9.48;3.60;;;16.40;99.90;;;;;;4955026;28;88050;-79
2023/08/02 04:03:48;;;;;;;5.97;3.47;;;16.40;99.90;;;;;;4955946;28;87755;-79
2023/08/02 04:06:14;;;;;;;8.88;4.05;;;16.40;99.90;;;;;;4975673;28;87568;-79
2023/08/02 04:08:39;;;;;;;5.97;3.88;;;16.40;99.90;;;;;;4956883;28;91791;-78
2023/08/02 04:11:05;;;;;;;6.30;3.90;;;16.40;99.90;;;;;;4966354;28;88302;-79
2023/08/02 04:13:32;;;;;;;7.03;3.80;;;16.40;99.90;;;;;;4965533;28;87819;-79
2023/08/02 04:15:58;;;;;;;9.82;4.30;;;16.40;99.90;;;;;;4978157;28;87824;-79
2023/08/02 04:18:23;;;;;;;10.80;4.85;;;16.40;99.90;;;;;;4960721;28;92281;-78
2023/08/02 04:20:49;;;;;;;6.68;4.53;;;16.40;99.90;;;;;;4978543;28;89069;-79
2023/08/02 04:23:15;;;;;;;11.20;3.85;;;16.30;99.90;;;;;;4978465;28;87919;-79
2023/08/02 04:25:40;;;;;;;11.02;5.22;;;16.30;99.90;;;;;;4969886;28;88155;-79
2023/08/02 04:28:06;;;;;;;9.30;4.55;;;16.30;99.90;;;;;;4962435;28;88393;-79
2023/08/02 04:30:32;;;;;;;10.85;3.80;;;16.30;99.90;;;;;;4978794;28;88377;-79
2023/08/02 04:32:57;;;;;;;16.55;5.22;;;16.30;99.90;;;;;;4961058;28;87753;-79
2023/08/02 04:35:23;;;;;;;8.65;4.03;;;16.30;99.90;;;;;;4972324;28;87715;-79
2023/08/02 04:37:49;;;;;;;8.65;4.07;;;16.30;99.90;;;;;;4977437;28;89232;-78
2023/08/02 04:40:15;;;;;;;9.32;4.28;;;16.30;99.90;;;;;;4978159;28;88314;-78
2023/08/02 04:42:41;;;;;;;7.60;4.25;;;16.30;99.90;;;;;;4977956;28;88991;-77
2023/08/02 04:45:08;;;;;;;8.73;4.43;;;16.30;99.90;;;;;;4959141;28;87774;-79
2023/08/02 04:47:33;;;;;;;7.25;3.92;;;16.30;99.90;;;;;;4955674;28;91715;-78
2023/08/02 04:50:00;;;;;;;8.15;4.15;;;16.30;99.90;;;;;;4977469;28;88162;-77
2023/08/02 04:52:25;;;;;;;8.20;4.05;;;16.30;99.90;;;;;;4972406;28;87555;-79
2023/08/02 04:54:51;;;;;;;8.70;3.80;;;16.30;99.90;;;;;;4959692;28;87524;-79
2023/08/02 04:57:16;;;;;;;7.18;4.10;;;16.40;99.90;;;;;;4978443;28;88163;-78
2023/08/02 04:59:42;;;;;;;7.85;4.30;;;16.40;99.90;;;;;;4961857;28;88786;-78
2023/08/02 05:02:08;;;;;;;10.82;4.68;;;16.40;99.90;;;;;;4958208;28;87696;-78
2023/08/02 05:04:33;;;;;;;7.63;3.70;;;16.40;99.90;;;;;;4965496;28;87772;-79
2023/08/02 05:06:59;;;;;;;7.93;4.30;;;16.40;99.90;;;;;;4977173;28;90022;-78
2023/08/02 05:09:24;;;;;;;7.93;4.30;;;16.40;99.90;;;;;;4978712;28;90270;-78
2023/08/02 05:11:50;;;;;;;5.63;4.05;;;16.40;99.90;;;;;;4978034;28;87513;-79
2023/08/02 05:14:16;;;;;;;9.10;3.80;;;16.50;99.90;;;;;;4977536;28;89668;-78
2023/08/02 05:16:42;;;;;;;8.18;4.65;;;16.40;99.90;;;;;;4977916;28;88858;-79
2023/08/02 05:19:08;;;;;;;8.43;3.85;;;16.50;99.90;;;;;;4976767;28;88572;-78
2023/08/02 05:21:33;;;;;;;7.53;3.60;;;16.40;99.90;;;;;;4978006;28;87248;-78
2023/08/02 05:23:59;;;;;;;5.00;3.40;;;16.40;99.90;;;;;;4977175;28;88409;-78
2023/08/02 05:26:25;;;;;;;6.47;3.05;;;16.50;99.90;;;;;;4977534;28;88164;-78
2023/08/02 05:28:50;;;;;;;5.03;2.75;;;16.50;99.90;;;;;;4950019;28;89064;-78
2023/08/02 05:31:16;;;;;;;5.53;3.03;;;16.50;99.90;;;;;;4963166;28;88386;-78
2023/08/02 05:33:41;;;;;;;8.27;3.78;;;16.50;99.90;;;;;;4977596;28;87778;-78
2023/08/02 05:36:11;;;;;;;3.97;2.83;;;16.50;99.90;;;;;;4940355;28;91205;-78
2023/08/02 05:38:38;;;;;;;4.18;2.40;;;16.50;99.90;;;;;;4955744;28;91482;-79
2023/08/02 05:41:04;;;;;;;5.40;2.67;;;16.50;99.90;;;;;;4977722;28;87609;-78
2023/08/02 05:43:30;;;;;;;4.03;2.50;;;16.50;99.90;;;;;;4970526;28;87808;-79
2023/08/02 05:45:56;;;;;;;8.90;3.15;;;16.50;99.90;;;;;;4958968;28;88199;-79
2023/08/02 05:48:22;;;;;;;4.53;2.80;;;16.50;99.90;;;;;;4978295;28;86997;-79
2023/08/02 05:50:48;;;;;;;3.33;2.55;;;16.60;99.90;;;;;;4959754;28;87476;-79
2023/08/02 05:53:13;;;;;;;3.83;2.50;;;16.60;99.90;;;;;;4969739;28;88191;-78
2023/08/02 05:55:39;;;;;;;5.00;2.60;;;16.60;99.90;;;;;;4969145;28;89136;-78
2023/08/02 05:58:05;;;;;;;4.53;2.20;;;16.70;99.90;;;;;;4960298;28;89390;-79
2023/08/02 06:00:31;;;;;;;3.60;2.33;;;16.70;99.90;;;;;;4978042;28;87872;-78
2023/08/02 06:02:56;;;;;;;4.20;2.22;;;16.70;99.90;;;;;;4976997;28;87686;-78
2023/08/02 06:05:22;;;;;;;3.00;2.03;;;16.70;99.90;;;;;;4976777;28;88303;-78
2023/08/02 06:07:47;;;;;;;3.53;1.85;;;16.60;99.90;;;;;;4967642;28;88380;-78
2023/08/02 06:10:13;;;;;;;3.22;2.13;;;16.70;99.90;;;;;;4962156;28;87338;-78
2023/08/02 06:12:39;;;;;;;2.25;1.50;;;16.70;99.90;;;;;;4978205;28;87473;-78
2023/08/02 06:15:05;;;;;;;2.50;1.60;;;16.70;99.90;;;;;;4973929;28;88767;-78
2023/08/02 06:17:31;;;;;;;2.03;1.50;;;16.70;99.90;;;;;;4958462;28;94844;-78
2023/08/02 06:19:56;;;;;;;3.65;1.52;;;16.70;99.90;;;;;;4954209;28;88722;-80
2023/08/02 06:22:22;;;;;;;4.25;1.30;;;16.70;99.90;;;;;;4942830;28;89534;-81
2023/08/02 06:24:47;;;;;;;1.20;0.90;;;16.70;99.90;;;;;;4974641;28;89371;-80
2023/08/02 06:27:13;;;;;;;1.58;1.10;;;16.70;99.90;;;;;;4976710;28;87760;-81
2023/08/02 06:29:39;;;;;;;1.60;1.00;;;16.70;99.90;;;;;;4979565;28;87243;-81
2023/08/02 06:32:05;;;;;;;4.05;1.00;;;16.80;99.90;;;;;;4976150;28;87541;-80
2023/08/02 06:34:30;;;;;;;1.98;0.80;;;16.80;99.90;;;;;;4969590;28;90324;-81
2023/08/02 06:36:56;;;;;;;1.33;0.70;;;17.00;99.90;;;;;;4957546;28;88881;-81
2023/08/02 06:39:21;;;;;;;0.50;0.50;;;17.00;99.90;;;;;;4940167;28;87212;-81
2023/08/02 06:41:47;;;;;;;0.77;0.50;;;17.10;99.90;;;;;;4957081;28;90227;-82
2023/08/02 06:44:13;;;;;;;0.95;0.35;;;17.20;99.90;;;;;;4958433;28;92502;-83
2023/08/02 06:46:40;;;;;;;2.13;0.32;;;17.20;99.90;;;;;;4957854;28;90711;-82
2023/08/02 06:49:06;;;;;;;1.25;0.50;;;17.30;99.90;;;;;;4972793;28;87795;-83
2023/08/02 06:51:31;;;;;;;0.45;0.30;;;17.30;99.90;;;;;;4939699;28;89727;-84
2023/08/02 06:53:57;;;;;;;0.68;0.40;;;17.40;99.90;;;;;;4957705;28;91496;-83
2023/08/02 06:56:24;;;;;;;1.10;0.40;;;17.40;99.90;;;;;;4945598;28;90004;-82
2023/08/02 06:58:49;;;;;;;0.95;0.30;;;17.40;99.90;;;;;;4939701;28;87619;-84
2023/08/02 07:01:17;;;;;;;0.10;0.10;;;17.40;99.90;;;;;;4943818;28;90240;-84
2023/08/02 07:03:43;;;;;;;1.33;0.73;;;17.50;99.90;;;;;;4976381;28;88894;-83
2023/08/02 07:06:14;;;;;;;0.50;0.20;;;17.50;99.90;;;;;;4976869;28;87904;-83
2023/08/02 07:08:40;;;;;;;0.70;0.13;;;17.50;99.90;;;;;;4942315;28;88167;-82
2023/08/02 07:11:06;;;;;;;1.13;0.20;;;17.50;99.90;;;;;;4966816;28;89067;-81
2023/08/02 07:13:33;;;;;;;0.45;0.20;;;17.60;99.90;;;;;;4968923;28;88777;-82
2023/08/02 07:15:59;;;;;;;0.20;0.20;;;17.60;99.90;;;;;;4958892;28;88301;-82
2023/08/02 07:18:25;;;;;;;0.20;0.20;;;17.70;99.90;;;;;;4976644;28;87574;-83
2023/08/02 07:20:51;;;;;;;0.95;0.10;;;17.80;99.90;;;;;;4957730;28;89132;-80
2023/08/02 07:23:16;;;;;;;0.10;0.10;;;17.80;99.90;;;;;;4944588;28;88235;-81
2023/08/02 07:25:42;;;;;;;0.35;0.10;;;17.90;99.90;;;;;;4938561;28;91355;-81
2023/08/02 07:28:08;;;;;;;0.90;0.10;;;18.00;99.90;;;;;;4937717;28;87448;-82
2023/08/02 07:30:33;;;;;;;0.40;0.20;;;18.00;99.90;;;;;;4938413;28;90359;-82
2023/08/02 07:32:59;;;;;;;0.88;0.10;;;18.10;99.90;;;;;;4955819;28;89031;-81
2023/08/02 07:35:24;;;;;;;0.13;0.00;;;18.20;99.90;;;;;;4969837;28;88949;-81
2023/08/02 07:37:50;;;;;;;0.10;0.10;;;18.20;99.90;;;;;;4948939;28;88145;-88
2023/08/02 07:40:16;;;;;;;0.00;0.00;;;18.20;99.90;;;;;;4943174;28;88258;-83
2023/08/02 07:42:42;;;;;;;0.98;0.10;;;18.30;99.90;;;;;;4956849;28;90365;-82
2023/08/02 07:45:09;;;;;;;0.30;0.10;;;18.30;99.90;;;;;;4958032;28;90758;-82
2023/08/02 07:47:35;;;;;;;0.10;0.00;;;18.40;99.90;;;;;;4957963;28;87677;-82
2023/08/02 07:50:02;;;;;;;1.10;0.10;;;18.40;99.90;;;;;;4947373;28;90943;-82
2023/08/02 07:52:28;;;;;;;0.20;0.10;;;18.50;99.90;;;;;;4951844;28;90527;-88
2023/08/02 07:54:54;;;;;;;0.32;0.08;;;18.50;99.90;;;;;;4939129;28;90611;-87
2023/08/02 07:57:22;;;;;;;0.30;0.03;;;18.50;99.90;;;;;;4955813;28;88716;-83
2023/08/02 07:59:48;;;;;;;0.40;0.00;;;18.60;99.90;;;;;;4955590;28;90129;-79
2023/08/02 08:02:14;;;;;;;0.40;0.10;;;18.60;99.90;;;;;;4964001;28;89355;-80
2023/08/02 08:04:41;;;;;;;1.38;0.10;;;18.70;99.90;;;;;;4964958;28;87489;-80
2023/08/02 08:07:06;;;;;;;0.30;0.00;;;18.70;99.90;;;;;;4954995;28;87654;-80
2023/08/02 08:09:33;;;;;;;0.57;0.10;;;18.70;99.90;;;;;;4939073;28;90898;-80
2023/08/02 08:12:02;;;;;;;0.73;0.00;;;18.80;99.90;;;;;;4955588;28;92032;-80
2023/08/02 08:14:29;;;;;;;0.20;0.00;;;18.80;99.90;;;;;;4943163;28;91081;-80
2023/08/02 08:16:56;;;;;;;1.33;0.00;;;18.90;99.90;;;;;;4937542;28;87752;-81
2023/08/02 08:19:22;;;;;;;0.25;0.00;;;18.90;99.90;;;;;;4936790;28;90569;-81
2023/08/02 08:21:48;;;;;;;0.10;0.00;;;19.00;99.90;;;;;;4955293;28;89571;-80
2023/08/02 08:24:13;;;;;;;0.00;0.00;;;19.00;99.90;;;;;;4975091;28;89295;-80
2023/08/02 08:26:39;;;;;;;0.10;0.00;;;19.10;99.90;;;;;;4974680;28;87431;-80
2023/08/02 08:29:04;;;;;;;0.43;0.00;;;19.20;99.90;;;;;;4963650;28;88117;-80
2023/08/02 08:31:31;;;;;;;1.10;0.10;;;19.20;99.90;;;;;;4954858;28;88558;-80
2023/08/02 08:33:56;;;;;;;0.63;0.00;;;19.30;99.90;;;;;;4957047;28;88513;-85
2023/08/02 08:36:22;;;;;;;0.93;0.00;;;19.50;99.90;;;;;;4958088;28;87271;-85
2023/08/02 08:38:48;;;;;;;0.38;0.10;;;19.60;99.90;;;;;;4956912;28;89557;-80
2023/08/02 08:41:17;;;;;;;0.05;0.00;;;19.70;99.90;;;;;;4944499;28;90322;-80
2023/08/02 08:43:44;;;;;;;0.00;0.00;;;19.70;99.90;;;;;;4955930;28;89268;-80
2023/08/02 08:46:13;;;;;;;0.57;0.00;;;19.80;99.90;;;;;;4937528;28;88078;-79
2023/08/02 08:48:39;;;;;;;1.65;0.00;;;19.80;99.90;;;;;;4955499;28;87549;-82
2023/08/02 08:51:05;;;;;;;0.10;0.10;;;19.80;99.90;;;;;;4955141;28;88706;-81
2023/08/02 08:53:35;;;;;;;0.00;0.00;;;19.80;99.90;;;;;;4955940;28;95348;-81
2023/08/02 08:56:03;;;;;;;1.27;0.00;;;19.70;99.90;;;;;;4939359;28;89038;-81
2023/08/02 08:58:29;;;;;;;1.75;0.13;;;19.70;99.90;;;;;;4957412;28;90132;-82
2023/08/02 09:00:56;;;;;;;0.20;0.00;;;19.70;99.90;;;;;;4940212;28;91217;-82
2023/08/02 09:03:23;;;;;;;0.30;0.00;;;19.70;99.90;;;;;;4941727;28;91718;-81
2023/08/02 09:05:50;;;;;;;0.10;0.10;;;19.70;99.90;;;;;;4941025;28;87772;-81
2023/08/02 09:08:16;;;;;;;0.20;0.10;;;19.70;99.90;;;;;;4956671;28;90018;-82
2023/08/02 09:10:41;;;;;;;0.30;0.10;;;19.80;99.90;;;;;;4941221;28;91610;-81
2023/08/02 09:13:20;;;;;;;0.43;0.10;;;20.00;99.90;;;;;;4939532;28;92721;-81
2023/08/02 09:16:03;;;;;;;1.00;0.17;;;20.20;99.90;;;;;;4940446;28;87423;-80
2023/08/02 09:18:40;;;;;;;0.52;0.10;;;20.30;99.90;;;;;;4941405;28;90380;-83
2023/08/02 09:21:07;;;;;;;1.23;0.22;;;20.50;99.90;;;;;;4958883;28;88776;-83
2023/08/02 09:23:33;;;;;;;0.13;0.10;;;20.60;99.90;;;;;;4940825;28;91583;-83
2023/08/02 09:26:19;;;;;;;0.17;0.10;;;20.80;99.90;;;;;;4940767;28;87686;-83
2023/08/02 09:29:04;;;;;;;0.73;0.20;;;20.90;99.50;;;;;;4940644;28;90745;-79
2023/08/02 09:31:32;;;;;;;2.38;0.10;;;21.10;99.50;;;;;;4957528;28;89321;-79
2023/08/02 09:33:58;;;;;;;0.10;0.10;;;21.20;98.80;;;;;;4958198;28;88116;-85
2023/08/02 09:36:34;;;;;;;0.63;0.30;;;21.30;98.70;;;;;;4941732;28;88362;-84
2023/08/02 09:39:14;;;;;;;0.75;0.20;;;21.40;98.50;;;;;;4940564;28;90156;-85
2023/08/02 09:41:40;;;;;;;0.10;0.10;;;21.60;97.90;;;;;;4939736;28;90294;-79
2023/08/02 09:44:07;;;;;;;0.43;0.20;;;21.60;97.20;;;;;;4957959;28;88116;-79
2023/08/02 09:46:35;;;;;;;2.58;0.40;;;21.70;98.10;;;;;;4958427;28;87893;-79
2023/08/02 09:49:21;;;;;;;0.15;0.15;;;21.80;97.00;;;;;;4956821;28;87603;-79
2023/08/02 09:51:47;;;;;;;1.60;0.22;;;21.80;96.50;;;;;;4956365;28;88981;-79
2023/08/02 09:54:14;;;;;;;0.80;0.10;;;21.80;97.80;;;;;;4958404;28;87732;-79
2023/08/02 09:56:41;;;;;;;2.85;0.20;;;21.80;98.10;;;;;;4957853;28;87706;-79
2023/08/02 09:59:08;;;;;;;0.10;0.10;;;21.80;97.80;;;;;;4957296;28;87796;-79
2023/08/02 10:01:35;;;;;;;1.83;0.10;;;21.80;97.80;;;;;;4957018;28;90060;-79
2023/08/02 10:04:10;;;;;;;0.20;0.20;;;21.90;98.10;;;;;;4956528;28;88915;-79
2023/08/02 10:06:44;;;;;;;0.20;0.20;;;22.00;96.60;;;;;;4940835;28;87843;-79
2023/08/02 10:09:13;;;;;;;0.10;0.10;;;22.10;96.10;;;;;;4959024;28;95837;-79
2023/08/02 10:12:04;;;;;;;0.73;0.13;;;22.10;96.40;;;;;;4960289;28;89188;-79
2023/08/02 10:14:33;;;;;;;0.93;0.55;;;22.10;96.30;;;;;;4971516;28;88251;-79
2023/08/02 10:17:02;;;;;;;0.40;0.20;;;22.00;96.90;;;;;;4976775;28;87588;-79
2023/08/02 10:19:29;;;;;;;1.10;0.20;;;22.00;96.60;;;;;;4970202;28;89294;-78
2023/08/02 10:22:04;;;;;;;0.20;0.17;;;21.90;97.00;;;;;;4958121;28;87429;-78
2023/08/02 10:24:29;;;;;;;1.02;0.10;;;21.90;97.80;;;;;;4959486;28;91762;-78
2023/08/02 10:27:06;;;;;;;0.65;0.10;;;21.80;97.60;;;;;;4958339;28;88967;-79
2023/08/02 10:29:34;;;;;;;0.20;0.20;;;21.90;97.90;;;;;;4953101;28;90797;-78
2023/08/02 10:32:13;;;;;;;0.35;0.10;;;21.90;98.30;;;;;;4976472;28;88474;-79
2023/08/02 10:34:40;;;;;;;0.75;0.10;;;21.90;97.40;;;;;;4968098;28;87780;-80
2023/08/02 10:37:06;;;;;;;0.10;0.10;;;21.90;97.70;;;;;;4958038;28;87427;-79
2023/08/02 10:39:47;;;;;;;0.73;0.10;;;21.80;97.40;;;;;;4959300;28;87948;-81
2023/08/02 10:42:14;;;;;;;1.17;0.20;;;21.80;98.00;;;;;;4976685;28;92345;-80
2023/08/02 10:44:55;;;;;;;0.75;0.10;;;21.70;98.50;;;;;;4976859;28;88426;-80
2023/08/02 10:47:28;;;;;;;0.10;0.10;;;21.70;98.80;;;;;;4975292;28;87724;-80
2023/08/02 10:49:54;;;;;;;0.32;0.20;;;21.70;98.90;;;;;;4975049;28;87508;-78
2023/08/02 10:52:29;;;;;;;2.95;0.47;;;21.70;98.80;;;;;;4975132;28;88609;-78
2023/08/02 10:55:06;;;;;;;3.40;0.90;;;21.70;99.00;;;;;;4955767;28;90878;-82
2023/08/02 10:57:31;;;;;;;2.30;0.40;;;21.60;98.90;;;;;;4957272;28;87573;-79
2023/08/02 10:59:57;;;;;;;1.80;0.60;;;21.40;99.40;;;;;;4956737;28;87774;-79
2023/08/02 11:02:25;;;;;;;0.80;0.30;;;21.00;99.90;;;;;;4976004;28;87504;-79
2023/08/02 11:05:00;;;;;;;4.60;1.05;;;20.80;99.90;;;;;;4975603;28;88568;-83
2023/08/02 11:07:25;;;;;;;1.20;0.30;;;20.60;99.90;;;;;;4958934;28;87267;-79
2023/08/02 11:09:55;;;;;;;1.65;0.57;;;20.60;99.90;;;;;;4975340;28;87216;-80
2023/08/02 11:12:22;;;;;;;2.30;0.63;;;20.50;99.90;;;;;;4977484;28;89057;-80
2023/08/02 11:14:52;;;;;;;3.03;0.40;;;20.40;99.90;;;;;;4976229;28;88915;-79
2023/08/02 11:17:19;;;;;;;2.55;0.73;;;20.30;99.90;;;;;;4943988;28;88528;-79
2023/08/02 11:19:49;;;;;;;6.18;0.77;;;20.20;99.90;;;;;;4955250;28;87767;-79
2023/08/02 11:22:16;;;;;;;3.63;1.23;;;20.10;99.90;;;;;;4955832;28;89128;-82
2023/08/02 11:24:56;;;;;;;3.33;0.75;;;20.20;99.90;;;;;;4957024;28;87909;-82
2023/08/02 11:27:23;;;;;;;3.28;0.60;;;20.30;99.90;;;;;;4937496;28;88410;-82
2023/08/02 11:30:07;;;;;;;3.30;0.90;;;20.40;99.90;;;;;;4956200;28;87838;-82
2023/08/02 11:32:34;;;;;;;3.97;0.73;;;20.60;99.90;;;;;;4956859;28;88709;-81
2023/08/02 11:35:00;;;;;;;6.18;0.90;;;20.80;99.90;;;;;;4954805;28;91113;-81
2023/08/02 11:37:27;;;;;;;5.40;0.88;;;20.90;99.90;;;;;;4937648;28;87969;-81
2023/08/02 11:39:58;;;;;;;8.00;0.90;;;21.10;99.60;;;;;;4939923;28;88996;-81
2023/08/02 11:42:25;;;;;;;5.32;0.73;;;21.20;99.90;;;;;;4974298;28;92319;-82
2023/08/02 11:44:51;;;;;;;3.20;1.33;;;21.50;99.80;;;;;;4974332;28;89981;-81
2023/08/02 11:47:17;;;;;;;3.03;1.00;;;21.70;99.40;;;;;;4957904;28;87596;-81
2023/08/02 11:49:50;;;;;;;6.68;0.85;;;22.00;98.60;;;;;;4957991;28;88188;-81
2023/08/02 11:52:32;;;;;;;5.37;1.10;;;22.30;97.90;;;;;;4960189;28;88644;-82
2023/08/02 11:54:58;;;;;;;3.42;0.75;;;22.40;96.60;;;;;;4975495;28;88581;-80
2023/08/02 11:57:25;;;;;;;7.75;1.08;;;22.50;93.10;;;;;;4958501;28;87661;-81
2023/08/02 11:59:56;;;;;;;3.33;0.90;;;22.50;94.00;;;;;;4976079;28;87088;-81
2023/08/02 12:02:34;;;;;;;4.65;0.82;;;22.50;93.50;;;;;;4957924;28;89879;-81
2023/08/02 12:05:05;;;;;;;4.18;0.80;;;22.60;92.20;;;;;;4965138;28;88097;-81
2023/08/02 12:07:32;;;;;;;5.47;0.90;;;22.60;91.70;;;;;;4944370;28;88750;-81
2023/08/02 12:10:01;;;;;;;3.15;0.70;;;22.60;91.40;;;;;;4955183;28;87777;-81
2023/08/02 12:12:31;;;;;;;4.97;0.98;;;22.60;90.40;;;;;;4954412;28;90827;-81
2023/08/02 12:14:57;;;;;;;5.40;1.02;;;22.70;91.70;;;;;;4956400;28;88237;-81
2023/08/02 12:17:24;;;;;;;3.45;0.60;;;22.70;90.60;;;;;;4952224;28;87708;-81
2023/08/02 12:19:50;;;;;;;4.10;0.77;;;22.60;89.70;;;;;;4957434;28;88010;-81
2023/08/02 12:22:18;;;;;;;3.97;0.73;;;22.60;90.40;;;;;;4970402;28;89094;-81
2023/08/02 12:24:44;;;;;;;3.83;0.80;;;22.60;90.00;;;;;;4956238;28;88426;-81
2023/08/02 12:27:17;;;;;;;3.67;1.08;;;22.50;90.00;;;;;;4938810;28;87558;-81
2023/08/02 12:29:44;;;;;;;3.45;0.80;;;22.40;90.00;;;;;;4972223;28;87582;-81
2023/08/02 12:32:27;;;;;;;3.38;0.70;;;22.30;91.10;;;;;;4959948;28;90993;-84
2023/08/02 12:34:53;;;;;;;6.32;1.50;;;22.30;90.60;;;;;;4960016;28;92305;-83
2023/08/02 12:37:19;;;;;;;5.40;1.38;;;22.30;91.50;;;;;;4955126;28;88075;-81
2023/08/02 12:39:45;;;;;;;6.30;1.20;;;22.10;90.40;;;;;;4958878;28;87285;-81
2023/08/02 12:42:10;;;;;;;4.70;1.02;;;22.00;92.00;;;;;;4941060;28;90860;-80
2023/08/02 12:44:36;;;;;;;5.82;0.90;;;21.80;92.80;;;;;;4974838;28;88230;-79
2023/08/02 12:47:02;;;;;;;8.32;2.20;;;21.70;92.30;;;;;;4967865;28;87759;-80